createdAt,value
2017-07-28T00:00:30.425Z,2.47
2017-07-28T00:02:57.849Z,3.30
2017-07-28T00:05:25.306Z,3.47
2017-07-28T00:07:52.839Z,2.50
2017-07-28T00:10:20.294Z,3.50
2017-07-28T00:12:47.914Z,2.93
2017-07-28T00:15:15.405Z,3.27
2017-07-28T00:17:42.842Z,3.27
2017-07-28T00:20:10.290Z,3.00
2017-07-28T00:22:37.777Z,2.93
2017-07-28T00:25:05.487Z,2.77
2017-07-28T00:27:33.022Z,2.90
2017-07-28T00:30:00.551Z,3.40
2017-07-28T00:32:28.109Z,3.40
2017-07-28T00:34:55.588Z,3.57
2017-07-28T00:37:23.281Z,4.10
2017-07-28T00:39:50.740Z,3.60
2017-07-28T00:42:18.264Z,3.57
2017-07-28T00:44:45.825Z,3.50
2017-07-28T00:47:13.335Z,3.73
2017-07-28T00:49:40.933Z,3.27
2017-07-28T00:52:08.441Z,3.73
2017-07-28T00:54:35.902Z,3.20
2017-07-28T00:57:03.388Z,3.03
2017-07-28T00:59:30.827Z,4.30
2017-07-28T01:01:58.303Z,3.80
2017-07-28T01:04:25.764Z,3.80
2017-07-28T01:06:53.342Z,3.47
2017-07-28T01:09:20.804Z,3.37
2017-07-28T01:11:48.353Z,3.30
2017-07-28T01:14:15.907Z,3.67
2017-07-28T01:16:43.362Z,3.60
2017-07-28T01:19:10.825Z,4.27
2017-07-28T01:21:38.296Z,5.57
2017-07-28T01:24:05.760Z,3.73
2017-07-28T01:26:33.316Z,4.47
2017-07-28T01:29:00.788Z,3.83
2017-07-28T01:31:28.312Z,4.33
2017-07-28T01:33:55.775Z,4.40
2017-07-28T01:36:23.226Z,4.70
2017-07-28T01:38:50.775Z,5.13
2017-07-28T01:41:18.300Z,4.60
2017-07-28T01:43:45.798Z,4.60
2017-07-28T01:46:13.272Z,4.97
2017-07-28T01:48:40.752Z,4.40
2017-07-28T01:51:08.323Z,5.83
2017-07-28T01:53:35.803Z,4.70
2017-07-28T01:56:03.327Z,4.43
2017-07-28T01:58:30.844Z,3.90
2017-07-28T02:00:58.305Z,5.30
2017-07-28T02:03:25.860Z,4.60
2017-07-28T02:05:53.344Z,4.30
2017-07-28T02:08:20.783Z,4.00
2017-07-28T02:10:48.332Z,4.10
2017-07-28T02:13:15.891Z,3.53
2017-07-28T02:15:43.370Z,4.30
2017-07-28T02:18:11.064Z,4.03
2017-07-28T02:20:38.567Z,5.57
2017-07-28T02:23:06.178Z,4.10
2017-07-28T02:25:33.651Z,4.33
2017-07-28T02:28:01.163Z,4.77
2017-07-28T02:30:28.959Z,4.67
2017-07-28T02:32:56.464Z,4.93
2017-07-28T02:35:23.957Z,5.00
2017-07-28T02:37:51.430Z,5.27
2017-07-28T02:40:18.934Z,4.27
2017-07-28T02:42:46.724Z,3.70
2017-07-28T02:45:14.261Z,4.07
2017-07-28T02:47:41.719Z,4.10
2017-07-28T02:50:09.203Z,3.40
2017-07-28T02:52:36.680Z,3.60
2017-07-28T02:55:04.137Z,5.57
2017-07-28T02:57:31.613Z,4.23
2017-07-28T02:59:59.083Z,4.57
2017-07-28T03:02:26.555Z,3.80
2017-07-28T03:04:54.009Z,4.50
2017-07-28T03:07:21.519Z,4.03
2017-07-28T03:09:48.971Z,5.10
2017-07-28T03:12:16.439Z,4.33
2017-07-28T03:14:43.893Z,4.77
2017-07-28T03:17:11.372Z,4.57
2017-07-28T03:19:38.864Z,3.70
2017-07-28T03:22:06.339Z,4.87
2017-07-28T03:24:33.816Z,4.40
2017-07-28T03:27:01.342Z,4.40
2017-07-28T03:29:28.787Z,4.00
2017-07-28T03:31:56.251Z,4.40
2017-07-28T03:34:23.797Z,5.53
2017-07-28T03:36:51.356Z,4.30
2017-07-28T03:39:18.924Z,4.23
2017-07-28T03:41:46.463Z,4.97
2017-07-28T03:44:13.936Z,3.67
2017-07-28T03:46:41.432Z,4.60
2017-07-28T03:49:08.944Z,4.30
2017-07-28T03:51:36.508Z,4.40
2017-07-28T03:54:04.011Z,4.80
2017-07-28T03:56:31.525Z,5.03
2017-07-28T03:58:59.006Z,4.37
2017-07-28T04:01:26.541Z,4.20
2017-07-28T04:03:54.087Z,4.80
2017-07-28T04:06:21.554Z,3.50
2017-07-28T04:08:49.023Z,4.43
2017-07-28T04:11:16.564Z,4.27
2017-07-28T04:13:44.123Z,4.43
2017-07-28T04:16:11.680Z,3.50
2017-07-28T04:18:39.244Z,6.60
2017-07-28T04:21:06.699Z,4.57
2017-07-28T04:23:34.660Z,4.90
2017-07-28T04:26:02.148Z,4.10
2017-07-28T04:28:29.610Z,4.90
2017-07-28T04:30:57.136Z,4.63
2017-07-28T04:33:24.624Z,4.73
2017-07-28T04:35:52.345Z,5.20
2017-07-28T04:38:19.820Z,5.13
2017-07-28T04:40:47.377Z,5.70
2017-07-28T04:43:14.828Z,4.77
2017-07-28T04:45:42.386Z,4.80
2017-07-28T04:48:09.840Z,4.87
2017-07-28T04:50:37.311Z,4.60
2017-07-28T04:53:04.836Z,4.53
2017-07-28T04:55:32.426Z,4.93
2017-07-28T04:57:59.977Z,5.03
2017-07-28T05:00:27.448Z,4.00
2017-07-28T05:02:54.903Z,4.27
2017-07-28T05:05:22.448Z,3.60
2017-07-28T05:07:50.008Z,4.17
2017-07-28T05:10:17.460Z,4.43
2017-07-28T05:12:44.941Z,4.53
2017-07-28T05:15:12.475Z,4.70
2017-07-28T05:17:39.950Z,4.20
2017-07-28T05:20:07.403Z,4.83
2017-07-28T05:22:34.947Z,4.40
2017-07-28T05:25:02.411Z,3.90
2017-07-28T05:27:29.919Z,4.00
2017-07-28T05:29:57.387Z,4.00
2017-07-28T05:32:24.835Z,4.50
2017-07-28T05:34:52.336Z,3.63
2017-07-28T05:37:19.779Z,4.17
2017-07-28T05:39:47.251Z,3.40
2017-07-28T05:42:14.820Z,3.73
2017-07-28T05:44:42.368Z,4.40
2017-07-28T05:47:09.815Z,3.77
2017-07-28T05:49:37.402Z,4.20
2017-07-28T05:52:04.857Z,3.20
2017-07-28T05:54:32.391Z,3.93
2017-07-28T05:56:59.843Z,4.57
2017-07-28T05:59:27.352Z,3.27
2017-07-28T06:01:54.895Z,3.60
2017-07-28T06:04:22.442Z,2.80
2017-07-28T06:06:49.899Z,3.27
2017-07-28T06:09:17.443Z,3.37
2017-07-28T06:11:44.970Z,3.80
2017-07-28T06:14:12.462Z,3.10
2017-07-28T06:16:39.967Z,2.97
2017-07-28T06:19:07.476Z,3.50
2017-07-28T06:21:34.937Z,2.77
2017-07-28T06:24:02.396Z,2.90
2017-07-28T06:26:29.879Z,2.63
2017-07-28T06:28:57.337Z,3.10
2017-07-28T06:31:24.813Z,4.60
2017-07-28T06:33:52.271Z,3.17
2017-07-28T06:36:19.751Z,3.50
2017-07-28T06:38:47.199Z,3.43
2017-07-28T06:41:14.678Z,3.90
2017-07-28T06:43:42.140Z,3.00
2017-07-28T06:46:09.698Z,3.47
2017-07-28T06:48:37.154Z,2.87
2017-07-28T06:51:04.663Z,3.60
2017-07-28T06:53:32.119Z,3.00
2017-07-28T06:55:59.587Z,2.50
2017-07-28T06:58:27.052Z,2.40
2017-07-28T07:00:54.541Z,2.30
2017-07-28T07:03:22.156Z,2.77
2017-07-28T07:05:49.664Z,1.50
2017-07-28T07:08:17.113Z,3.10
2017-07-28T07:10:44.603Z,2.30
2017-07-28T07:13:12.152Z,3.40
2017-07-28T07:15:39.627Z,2.80
2017-07-28T07:18:07.522Z,2.33
2017-07-28T07:20:35.032Z,2.70
2017-07-28T07:23:02.485Z,2.43
2017-07-28T07:25:29.932Z,3.33
2017-07-28T07:27:57.414Z,2.10
2017-07-28T07:30:25.394Z,3.37
2017-07-28T07:32:52.885Z,2.70
2017-07-28T07:35:20.420Z,3.40
2017-07-28T07:37:47.900Z,2.70
2017-07-28T07:40:15.361Z,2.83
2017-07-28T07:42:42.937Z,2.07
2017-07-28T07:45:10.396Z,2.27
2017-07-28T07:47:37.868Z,2.03
2017-07-28T07:50:05.320Z,2.13
2017-07-28T07:52:32.814Z,1.50
2017-07-28T07:55:00.273Z,2.20
2017-07-28T07:57:27.743Z,2.03
2017-07-28T07:59:55.234Z,1.70
2017-07-28T08:02:22.726Z,2.37
2017-07-28T08:04:50.264Z,2.43
2017-07-28T08:07:17.807Z,2.53
2017-07-28T08:09:45.347Z,2.13
2017-07-28T08:12:12.925Z,2.23
2017-07-28T08:14:40.381Z,2.73
2017-07-28T08:17:07.945Z,2.63
2017-07-28T08:19:35.399Z,1.70
2017-07-28T08:22:02.861Z,2.53
2017-07-28T08:24:30.362Z,2.63
2017-07-28T08:26:57.872Z,1.97
2017-07-28T08:29:25.343Z,2.90
2017-07-28T08:31:52.833Z,2.40
2017-07-28T08:34:20.304Z,2.30
2017-07-28T08:36:47.796Z,2.17
2017-07-28T08:39:15.361Z,1.80
2017-07-28T08:41:42.820Z,2.20
2017-07-28T08:44:10.372Z,2.20
2017-07-28T08:46:37.832Z,2.53
2017-07-28T08:49:05.406Z,2.73
2017-07-28T08:51:32.855Z,3.57
2017-07-28T08:54:00.342Z,2.83
2017-07-28T08:56:27.860Z,2.60
2017-07-28T08:58:55.416Z,2.10
2017-07-28T09:01:23.045Z,3.20
2017-07-28T09:03:50.592Z,2.20
2017-07-28T09:06:18.056Z,2.27
2017-07-28T09:08:45.576Z,2.30
2017-07-28T09:11:13.040Z,2.47
2017-07-28T09:13:40.513Z,2.53
2017-07-28T09:16:07.985Z,2.03
2017-07-28T09:18:35.477Z,2.20
2017-07-28T09:21:02.964Z,2.87
2017-07-28T09:23:30.503Z,2.43
2017-07-28T09:25:58.056Z,2.23
2017-07-28T09:28:25.513Z,2.17
2017-07-28T09:30:52.992Z,2.33
2017-07-28T09:33:20.570Z,2.90
2017-07-28T09:35:48.081Z,2.00
2017-07-28T09:38:16.695Z,2.00
2017-07-28T09:40:44.163Z,2.20
2017-07-28T09:43:11.679Z,2.30
2017-07-28T09:45:39.152Z,3.20
2017-07-28T09:48:06.607Z,2.30
2017-07-28T09:50:34.086Z,2.70
2017-07-28T09:53:01.608Z,2.10
2017-07-28T09:55:29.088Z,2.50
2017-07-28T09:57:56.535Z,1.83
2017-07-28T10:00:24.012Z,2.60
2017-07-28T10:02:51.588Z,2.70
2017-07-28T10:05:19.060Z,1.93
2017-07-28T10:07:46.520Z,2.47
2017-07-28T10:10:13.999Z,2.50
2017-07-28T10:12:41.464Z,1.93
2017-07-28T10:15:09.325Z,2.17
2017-07-28T10:17:36.786Z,2.20
2017-07-28T10:20:04.345Z,1.93
2017-07-28T10:22:31.812Z,1.93
2017-07-28T10:24:59.267Z,2.43
2017-07-28T10:27:27.193Z,2.13
2017-07-28T10:29:54.656Z,2.10
2017-07-28T10:32:22.153Z,2.00
2017-07-28T10:34:49.609Z,2.00
2017-07-28T10:37:17.161Z,2.50
2017-07-28T10:39:44.712Z,2.07
2017-07-28T10:42:12.274Z,2.40
2017-07-28T10:44:39.740Z,3.10
2017-07-28T10:47:07.211Z,2.70
2017-07-28T10:49:34.735Z,3.00
2017-07-28T10:52:02.299Z,3.00
2017-07-28T10:54:29.914Z,2.60
2017-07-28T10:56:57.387Z,2.70
2017-07-28T10:59:24.880Z,2.87
2017-07-28T11:01:52.352Z,3.60
2017-07-28T11:04:20.164Z,3.00
2017-07-28T11:06:47.665Z,2.73
2017-07-28T11:09:15.120Z,2.50
2017-07-28T11:11:43.472Z,2.53
2017-07-28T11:14:11.015Z,2.00
2017-07-28T11:16:40.503Z,2.13
2017-07-28T11:19:07.982Z,3.43
2017-07-28T11:21:35.472Z,3.33
2017-07-28T11:24:02.944Z,2.50
2017-07-28T11:26:30.425Z,2.10
2017-07-28T11:28:57.949Z,2.57
2017-07-28T11:31:25.526Z,2.87
2017-07-28T11:33:53.063Z,2.40
2017-07-28T11:36:20.551Z,2.60
2017-07-28T11:38:48.000Z,1.97
2017-07-28T11:41:15.752Z,2.43
2017-07-28T11:43:43.294Z,2.10
2017-07-28T11:46:10.798Z,2.77
2017-07-28T11:48:38.324Z,2.80
2017-07-28T11:51:05.868Z,2.40
2017-07-28T11:53:33.320Z,2.07
2017-07-28T11:56:00.791Z,2.37
2017-07-28T11:58:28.336Z,2.53
2017-07-28T12:00:55.788Z,3.13
2017-07-28T12:03:23.287Z,2.80
2017-07-28T12:05:50.738Z,3.30
2017-07-28T12:08:18.317Z,2.33
2017-07-28T12:10:45.823Z,2.30
2017-07-28T12:13:13.291Z,2.20
2017-07-28T12:15:40.747Z,1.93
2017-07-28T12:18:08.298Z,2.77
2017-07-28T12:20:35.803Z,1.63
2017-07-28T12:23:03.311Z,2.07
2017-07-28T12:25:30.773Z,3.30
2017-07-28T12:27:58.383Z,2.20
2017-07-28T12:30:27.112Z,1.53
2017-07-28T12:32:54.607Z,1.90
2017-07-28T12:35:22.055Z,2.57
2017-07-28T12:37:49.548Z,2.23
2017-07-28T12:40:17.046Z,1.93
2017-07-28T12:42:44.802Z,2.20
2017-07-28T12:45:12.239Z,1.97
2017-07-28T12:47:39.820Z,1.70
2017-07-28T12:50:07.387Z,2.60
2017-07-28T12:52:34.938Z,2.73
2017-07-28T12:55:02.394Z,1.73
2017-07-28T12:57:29.880Z,2.27
2017-07-28T12:59:57.415Z,2.37
2017-07-28T13:02:24.869Z,1.90
2017-07-28T13:04:52.346Z,1.97
2017-07-28T13:07:19.795Z,2.00
2017-07-28T13:09:47.353Z,1.97
2017-07-28T13:12:14.901Z,1.87
2017-07-28T13:14:42.384Z,1.40
2017-07-28T13:17:09.842Z,1.47
2017-07-28T13:19:37.372Z,1.93
2017-07-28T13:22:04.824Z,1.53
2017-07-28T13:24:32.320Z,1.47
2017-07-28T13:26:59.775Z,2.10
2017-07-28T13:29:27.294Z,1.57
2017-07-28T13:31:54.743Z,1.93
2017-07-28T13:34:22.219Z,1.03
2017-07-28T13:36:49.776Z,2.03
2017-07-28T13:39:17.275Z,1.50
2017-07-28T13:41:44.784Z,1.50
2017-07-28T13:44:12.260Z,1.50
2017-07-28T13:46:45.233Z,1.67
2017-07-28T13:49:12.788Z,1.47
2017-07-28T13:51:40.243Z,1.30
2017-07-28T13:54:07.800Z,1.33
2017-07-28T13:56:35.410Z,2.00
2017-07-28T13:59:02.914Z,1.50
2017-07-28T14:01:30.479Z,1.60
2017-07-28T14:03:58.034Z,1.70
2017-07-28T14:06:25.572Z,2.07
2017-07-28T14:08:53.161Z,1.80
2017-07-28T14:11:20.644Z,1.20
2017-07-28T14:13:48.176Z,1.20
2017-07-28T14:16:15.725Z,1.63
2017-07-28T14:18:43.286Z,1.03
2017-07-28T14:21:10.759Z,1.77
2017-07-28T14:23:38.212Z,1.40
2017-07-28T14:26:05.758Z,1.57
2017-07-28T14:28:33.221Z,1.00
2017-07-28T14:31:00.700Z,1.80
2017-07-28T14:33:28.233Z,1.23
2017-07-28T14:35:55.708Z,2.03
2017-07-28T14:38:23.161Z,1.60
2017-07-28T14:40:50.648Z,1.60
2017-07-28T14:43:18.121Z,1.63
2017-07-28T14:45:45.567Z,1.23
2017-07-28T14:48:13.068Z,1.30
2017-07-28T14:50:40.633Z,1.40
2017-07-28T14:53:08.120Z,1.60
2017-07-28T14:55:35.641Z,1.73
2017-07-28T14:58:03.111Z,1.33
2017-07-28T15:00:30.675Z,1.33
2017-07-28T15:02:58.227Z,1.50
2017-07-28T15:05:25.674Z,1.27
2017-07-28T15:07:53.239Z,1.13
2017-07-28T15:10:20.953Z,1.00
2017-07-28T15:12:48.444Z,1.10
2017-07-28T15:15:15.900Z,1.60
2017-07-28T15:17:43.468Z,1.83
2017-07-28T15:20:10.930Z,1.60
2017-07-28T15:22:38.409Z,1.50
2017-07-28T15:25:05.938Z,1.17
2017-07-28T15:27:33.447Z,1.10
2017-07-28T15:30:00.958Z,1.40
2017-07-28T15:32:28.442Z,1.17
2017-07-28T15:34:55.968Z,1.47
2017-07-28T15:37:23.416Z,1.27
2017-07-28T15:39:50.980Z,1.03
2017-07-28T15:42:18.491Z,1.23
2017-07-28T15:44:46.052Z,1.20
2017-07-28T15:47:13.508Z,1.10
2017-07-28T15:49:40.986Z,1.20
2017-07-28T15:52:08.436Z,1.30
2017-07-28T15:54:35.932Z,1.00
2017-07-28T15:57:03.404Z,1.30
2017-07-28T15:59:30.881Z,0.90
2017-07-28T16:01:58.347Z,0.70
2017-07-28T16:04:25.851Z,1.20
2017-07-28T16:06:53.312Z,1.20
2017-07-28T16:09:20.880Z,0.83
2017-07-28T16:11:48.378Z,1.63
2017-07-28T16:14:15.861Z,0.80
2017-07-28T16:16:43.344Z,1.23
2017-07-28T16:19:10.903Z,1.00
2017-07-28T16:21:38.343Z,2.03
2017-07-28T16:24:05.920Z,1.73
2017-07-28T16:26:33.400Z,1.20
2017-07-28T16:29:00.936Z,1.10
2017-07-28T16:31:28.461Z,0.97
2017-07-28T16:33:55.917Z,1.00
2017-07-28T16:36:23.406Z,1.27
2017-07-28T16:38:50.971Z,1.20
2017-07-28T16:41:18.440Z,1.10
2017-07-28T16:43:45.991Z,0.90
2017-07-28T16:46:13.467Z,1.47
2017-07-28T16:48:41.237Z,1.70
2017-07-28T16:51:08.768Z,1.33
2017-07-28T16:53:36.214Z,1.37
2017-07-28T16:56:03.675Z,1.40
2017-07-28T16:58:31.124Z,1.80
2017-07-28T17:00:58.591Z,1.60
2017-07-28T17:03:26.140Z,1.40
2017-07-28T17:05:53.603Z,1.17
2017-07-28T17:08:21.052Z,1.33
2017-07-28T17:10:48.532Z,1.97
2017-07-28T17:13:16.071Z,1.30
2017-07-28T17:15:43.627Z,1.17
2017-07-28T17:18:11.189Z,1.97
2017-07-28T17:20:38.672Z,1.63
2017-07-28T17:23:06.149Z,1.77
2017-07-28T17:25:33.675Z,1.47
2017-07-28T17:28:01.164Z,1.30
2017-07-28T17:30:28.672Z,1.20
2017-07-28T17:32:56.180Z,2.03
2017-07-28T17:35:23.637Z,1.30
2017-07-28T17:37:51.110Z,1.13
2017-07-28T17:40:18.599Z,1.10
2017-07-28T17:42:46.159Z,1.60
2017-07-28T17:45:13.619Z,1.47
2017-07-28T17:47:41.105Z,1.70
2017-07-28T17:50:08.831Z,1.60
2017-07-28T17:52:36.393Z,1.50
2017-07-28T17:55:03.956Z,1.70
2017-07-28T17:57:31.513Z,1.30
2017-07-28T17:59:59.071Z,1.57
2017-07-28T18:02:26.540Z,1.90
2017-07-28T18:04:54.086Z,1.60
2017-07-28T18:07:21.551Z,2.10
2017-07-28T18:09:49.068Z,1.60
2017-07-28T18:12:16.557Z,2.37
2017-07-28T18:14:44.004Z,2.10
2017-07-28T18:17:11.571Z,1.77
2017-07-28T18:19:39.014Z,1.57
2017-07-28T18:22:06.463Z,2.30
2017-07-28T18:24:34.047Z,1.83
2017-07-28T18:27:01.564Z,2.10
2017-07-28T18:29:29.049Z,1.53
2017-07-28T18:31:56.586Z,1.70
2017-07-28T18:34:24.075Z,1.83
2017-07-28T18:36:51.686Z,2.17
2017-07-28T18:39:19.172Z,1.20
2017-07-28T18:41:46.628Z,1.27
2017-07-28T18:44:14.109Z,1.73
2017-07-28T18:46:41.564Z,1.43
2017-07-28T18:49:09.313Z,1.37
2017-07-28T18:51:36.791Z,1.93
2017-07-28T18:54:04.258Z,1.63
2017-07-28T18:56:31.747Z,1.70
2017-07-28T18:58:59.216Z,1.70
2017-07-28T19:01:27.016Z,1.97
2017-07-28T19:03:54.525Z,2.27
2017-07-28T19:06:22.026Z,1.80
2017-07-28T19:08:49.596Z,1.57
2017-07-28T19:11:17.202Z,1.73
2017-07-28T19:13:45.149Z,1.80
2017-07-28T19:16:12.639Z,2.07
2017-07-28T19:18:40.131Z,1.77
2017-07-28T19:21:07.576Z,1.80
2017-07-28T19:23:35.048Z,1.47
2017-07-28T19:26:02.611Z,1.70
2017-07-28T19:28:30.055Z,1.37
2017-07-28T19:30:57.515Z,1.60
2017-07-28T19:33:24.989Z,1.63
2017-07-28T19:35:52.464Z,2.00
2017-07-28T19:38:19.987Z,1.50
2017-07-28T19:40:47.454Z,1.47
2017-07-28T19:43:14.903Z,1.90
2017-07-28T19:45:42.392Z,1.97
2017-07-28T19:48:09.852Z,1.40
2017-07-28T19:50:37.336Z,2.37
2017-07-28T19:53:04.829Z,1.97
2017-07-28T19:55:32.393Z,1.80
2017-07-28T19:57:59.872Z,1.77
2017-07-28T20:00:27.404Z,2.73
2017-07-28T20:02:54.961Z,2.53
2017-07-28T20:05:22.427Z,2.20
2017-07-28T20:07:49.885Z,2.40
2017-07-28T20:10:17.361Z,1.47
2017-07-28T20:12:44.813Z,2.10
2017-07-28T20:15:12.295Z,2.23
2017-07-28T20:17:39.751Z,1.40
2017-07-28T20:20:07.260Z,2.20
2017-07-28T20:22:34.714Z,1.90
2017-07-28T20:25:02.218Z,1.90
2017-07-28T20:27:29.700Z,2.40
2017-07-28T20:29:57.221Z,2.17
2017-07-28T20:32:24.693Z,2.43
2017-07-28T20:34:52.150Z,2.57
2017-07-28T20:37:19.671Z,2.00
2017-07-28T20:39:47.124Z,1.80
2017-07-28T20:42:14.591Z,2.60
2017-07-28T20:44:42.167Z,2.43
2017-07-28T20:47:09.688Z,2.60
2017-07-28T20:49:37.131Z,2.00
2017-07-28T20:52:04.626Z,1.90
2017-07-28T20:54:32.110Z,2.40
2017-07-28T20:56:59.587Z,2.40
2017-07-28T20:59:27.044Z,2.30
2017-07-28T21:01:54.516Z,3.00
2017-07-28T21:04:21.985Z,2.53
2017-07-28T21:06:49.460Z,2.37
2017-07-28T21:09:16.914Z,2.93
2017-07-28T21:11:44.397Z,2.53
2017-07-28T21:14:18.947Z,2.30
2017-07-28T21:16:46.423Z,2.33
2017-07-28T21:19:13.898Z,3.00
2017-07-28T21:21:41.443Z,3.30
2017-07-28T21:24:08.894Z,2.07
2017-07-28T21:26:36.819Z,1.97
2017-07-28T21:29:04.456Z,2.40
2017-07-28T21:31:31.906Z,2.40
2017-07-28T21:33:59.449Z,2.67
2017-07-28T21:36:27.726Z,2.20
2017-07-28T21:38:56.018Z,2.87
2017-07-28T21:41:24.291Z,4.00
2017-07-28T21:43:52.099Z,3.27
2017-07-28T21:46:19.677Z,3.13
2017-07-28T21:48:47.269Z,2.47
2017-07-28T21:51:14.736Z,2.70
2017-07-28T21:53:42.274Z,2.00
2017-07-28T21:56:09.733Z,2.53
2017-07-28T21:58:38.251Z,2.43
2017-07-28T22:01:05.757Z,2.73
2017-07-28T22:03:33.327Z,3.13
2017-07-28T22:06:01.735Z,2.13
2017-07-28T22:08:29.825Z,2.43
2017-07-28T22:10:57.699Z,2.43
2017-07-28T22:13:25.471Z,2.67
2017-07-28T22:15:53.068Z,2.53
2017-07-28T22:18:20.560Z,2.17
2017-07-28T22:20:48.002Z,2.13
2017-07-28T22:23:16.317Z,2.60
2017-07-28T22:25:44.025Z,2.40
2017-07-28T22:28:11.507Z,2.73
2017-07-28T22:30:39.036Z,1.83
2017-07-28T22:33:06.483Z,2.40
2017-07-28T22:35:33.948Z,2.90
2017-07-28T22:38:01.517Z,2.50
2017-07-28T22:40:29.090Z,2.50
2017-07-28T22:42:56.643Z,2.50
2017-07-28T22:45:24.139Z,2.67
2017-07-28T22:47:51.644Z,2.73
2017-07-28T22:50:19.115Z,2.50
2017-07-28T22:52:46.568Z,2.87
2017-07-28T22:55:14.036Z,2.80
2017-07-28T22:57:41.499Z,2.60
2017-07-28T23:00:08.983Z,2.63
2017-07-28T23:02:36.492Z,2.40
2017-07-28T23:05:03.968Z,2.10
2017-07-28T23:07:31.427Z,2.70
2017-07-28T23:09:58.947Z,2.50
2017-07-28T23:12:26.392Z,3.03
2017-07-28T23:14:53.864Z,2.90
2017-07-28T23:17:21.311Z,2.50
2017-07-28T23:19:48.789Z,2.13
2017-07-28T23:22:16.373Z,2.93
2017-07-28T23:24:43.900Z,2.27
2017-07-28T23:27:11.352Z,2.50
2017-07-28T23:29:38.964Z,3.17
2017-07-28T23:32:06.472Z,2.13
2017-07-28T23:34:34.081Z,2.73
2017-07-28T23:37:01.593Z,2.17
2017-07-28T23:39:29.040Z,2.27
2017-07-28T23:41:56.649Z,2.73
2017-07-28T23:44:24.138Z,2.67
2017-07-28T23:46:51.724Z,2.47
2017-07-28T23:49:19.178Z,2.40
2017-07-28T23:51:46.643Z,2.90
2017-07-28T23:54:14.316Z,2.97
2017-07-28T23:56:41.953Z,2.80
2017-07-28T23:59:09.514Z,3.80
